Livonia, MI (48150)

5:08 PM EDT on April 19, 2015 (GMT -0400)
Ziegler Woods | | Change Station
CLOSE
Current Station
Personal Weather Station
Location: Livonia, MI
Elevation: 640 ft
Nearby Weather Stations

Elev 640 ft 42.36 °N, 83.34 °W | Updated 7 seconds ago

Overcast
Overcast
58.3 °F
Feels Like 58.3 °F
N
10.5
Wind Variable Wind from ENE
Gusts 12.3 mph

Today
High -- | Low -- °F
--% Chance of Precip.
Yesterday
High -- | Low -- °F
Precip. -- in
6:46 AM 8:19 PM
New Moon, 2% visible
Pressure 29.75 in
Visibility 10.0 miles
Clouds Few 6500 ft
Mostly Cloudy 11000 ft
Overcast 18000 ft
Dew Point 38 °F
Humidity 47%
Rainfall 0.00 in
Snow Depth Not available.
UV 1 out of 12
Pollen 8.40 out of 12
Air Quality Not available.
Flu Activity Regional
METAR KDTW 192053Z 06014G20KT 10SM -RA FEW065 BKN110 OVC180 16/02 A2975 RMK AO2 RAB49 SLP073 P0000 60000 T01560022 58039 $

More Conditions Fewer Conditions

Pressure 29.75 in
Visibility 10.0 miles
Clouds Few 6500 ft
Mostly Cloudy 11000 ft
Overcast 18000 ft
Dew Point 38 °F
Humidity 47%
Rainfall 0.00 in
Snow Depth Not available.
UV 1 out of 12
Pollen 8.40 out of 12
Air Quality Not available.
Flu Activity Regional
METAR KDTW 192053Z 06014G20KT 10SM -RA FEW065 BKN110 OVC180 16/02 A2975 RMK AO2 RAB49 SLP073 P0000 60000 T01560022 58039 $

More Conditions Fewer Conditions

10-Day Weather Forecast

Almanac

Astronomy

Apr. 19, 2015 Rise Set
Actual Time
Civil Twilight
Nautical Twilight
Astronomical Twilight
Moon
Length of Visible Light
Length of Day
Tomorrow will be .
, % of the Moon is Illuminated

Today's Extremes

State Highs State Lows

Community

WunderPhotos

Upload Photos

1,814,980 photos uploaded!

WunderBlogs® & News

Nearby

Air Quality

  Air Quality AQ Index Pollutant
Not available.

Snow Depth

Station Depth Elevation

Earthquake Activity

City Distance Mag. Time & Date
Minimum magnitude displayed is 2.5.

Coastal Water Temperatures

Place Temperature

Stations

Nearby Weather Stations

Station Location Temp. Windchill Dew Point Humidity Wind Precip. Elev Updated Type